Time;durP1;ratioP1;P1;durP2;ratioP2;P2;SDS_P1;SDS_P2;PMS_P1;PMS_P2;Temp;Humidity;BMP_temperature;BMP_pressure;BME280_temperature;BME280_humidity;BME280_pressure;Samples;Min_cycle;Max_cycle;Signal;HPM_P1;HPM_P2
2022/07/30 00:00:51;;;;;;;2.77;1.90;;;18.10;99.90;;;;;;5083050;28;20489;-66
2022/07/30 00:03:18;;;;;;;2.40;1.80;;;18.20;99.90;;;;;;5088855;28;20438;-66
2022/07/30 00:05:46;;;;;;;3.73;2.37;;;18.20;99.90;;;;;;5086866;28;20475;-66
2022/07/30 00:08:13;;;;;;;3.13;2.57;;;18.30;99.90;;;;;;5090530;28;20439;-65
2022/07/30 00:10:40;;;;;;;3.30;2.30;;;18.30;99.90;;;;;;5088389;28;20511;-66
2022/07/30 00:13:08;;;;;;;3.13;2.00;;;18.30;99.90;;;;;;5090063;28;20439;-65
2022/07/30 00:15:35;;;;;;;3.40;2.13;;;18.30;99.90;;;;;;5089147;28;20439;-66
2022/07/30 00:18:03;;;;;;;3.00;2.57;;;18.20;99.90;;;;;;5089778;28;20439;-66
2022/07/30 00:20:31;;;;;;;2.63;2.10;;;18.20;99.90;;;;;;5088891;28;20439;-67
2022/07/30 00:22:58;;;;;;;3.20;2.17;;;18.20;99.90;;;;;;5081801;28;20435;-66
2022/07/30 00:25:25;;;;;;;7.97;2.80;;;18.10;99.90;;;;;;5089968;28;20446;-65
2022/07/30 00:27:52;;;;;;;3.97;2.40;;;18.10;99.90;;;;;;5088987;28;20431;-65
2022/07/30 00:30:19;;;;;;;3.50;2.60;;;18.00;99.90;;;;;;5090583;28;20435;-66
2022/07/30 00:32:46;;;;;;;5.80;2.90;;;18.00;99.90;;;;;;5078380;28;20914;-66
2022/07/30 00:35:15;;;;;;;3.90;2.47;;;17.90;99.90;;;;;;5071509;28;20498;-66
2022/07/30 00:37:42;;;;;;;3.50;2.57;;;17.90;99.90;;;;;;5070236;28;20523;-66
2022/07/30 00:40:10;;;;;;;3.47;2.33;;;17.90;99.90;;;;;;5071743;28;20501;-65
2022/07/30 00:42:39;;;;;;;4.10;2.03;;;17.80;99.90;;;;;;5081960;28;20439;-65
2022/07/30 00:45:08;;;;;;;3.27;2.40;;;17.80;99.90;;;;;;5093891;28;20470;-66
2022/07/30 00:47:35;;;;;;;6.43;2.50;;;17.80;99.90;;;;;;5085357;28;20514;-66
2022/07/30 00:50:03;;;;;;;2.90;2.17;;;17.80;99.90;;;;;;5075195;28;20435;-65
2022/07/30 00:52:32;;;;;;;4.80;2.07;;;17.80;99.90;;;;;;5081943;28;20925;-66
2022/07/30 00:55:00;;;;;;;3.50;2.20;;;17.80;99.90;;;;;;5095249;28;20435;-65
2022/07/30 00:57:27;;;;;;;3.70;1.90;;;17.70;99.90;;;;;;5085186;28;20432;-65
2022/07/30 00:59:55;;;;;;;3.27;2.30;;;17.60;99.90;;;;;;5075059;28;21173;-66
2022/07/30 01:02:22;;;;;;;4.97;2.17;;;17.50;99.90;;;;;;5074484;28;20928;-66
2022/07/30 01:04:49;;;;;;;5.70;2.33;;;17.40;99.90;;;;;;5074960;28;20526;-66
2022/07/30 01:07:16;;;;;;;8.07;2.80;;;17.40;99.90;;;;;;5079855;28;20474;-66
2022/07/30 01:09:45;;;;;;;3.70;2.53;;;17.40;99.90;;;;;;5095078;28;20471;-66
2022/07/30 01:12:17;;;;;;;3.70;2.27;;;17.40;99.90;;;;;;5087792;28;20427;-72
2022/07/30 01:14:44;;;;;;;3.10;2.37;;;17.40;99.90;;;;;;5073089;28;20502;-65
2022/07/30 01:17:11;;;;;;;4.77;2.90;;;17.40;99.90;;;;;;5078354;28;20428;-66
2022/07/30 01:19:50;;;;;;;4.10;2.27;;;17.50;99.90;;;;;;5094981;28;20500;-66
2022/07/30 01:22:24;;;;;;;3.70;2.50;;;17.50;99.90;;;;;;5089308;28;20919;-66
2022/07/30 01:25:01;;;;;;;7.40;2.40;;;17.50;99.90;;;;;;5087565;28;21020;-66
2022/07/30 01:27:35;;;;;;;3.23;2.33;;;17.50;99.90;;;;;;5087065;28;20491;-66
2022/07/30 01:30:04;;;;;;;3.57;2.37;;;17.50;99.90;;;;;;5074415;28;20487;-66
2022/07/30 01:32:34;;;;;;;4.23;2.20;;;17.50;99.90;;;;;;5076784;28;20435;-65
2022/07/30 01:35:04;;;;;;;3.47;2.70;;;17.50;99.90;;;;;;5095069;28;20438;-66
2022/07/30 01:37:33;;;;;;;5.13;2.00;;;17.50;99.90;;;;;;5088993;28;20436;-66
2022/07/30 01:40:00;;;;;;;4.00;2.30;;;17.50;99.90;;;;;;5074171;28;20486;-66
2022/07/30 01:42:31;;;;;;;5.20;2.17;;;17.50;99.90;;;;;;5077304;28;20431;-68
2022/07/30 01:44:59;;;;;;;3.57;2.47;;;17.50;99.90;;;;;;5094305;28;20471;-66
2022/07/30 01:47:28;;;;;;;4.20;2.20;;;17.40;99.90;;;;;;5091013;28;20480;-65
2022/07/30 01:49:56;;;;;;;3.17;2.27;;;17.40;99.90;;;;;;5073941;28;20444;-65
2022/07/30 01:52:25;;;;;;;3.60;2.33;;;17.30;99.90;;;;;;5074607;28;20452;-69
2022/07/30 01:54:54;;;;;;;4.60;2.77;;;17.40;99.90;;;;;;5072684;28;20447;-66
2022/07/30 01:57:21;;;;;;;3.60;2.50;;;17.30;99.90;;;;;;5074390;28;20444;-66
2022/07/30 01:59:57;;;;;;;4.90;2.30;;;17.40;99.90;;;;;;5094186;28;20439;-66
2022/07/30 02:02:24;;;;;;;3.37;2.00;;;17.40;99.90;;;;;;5092409;28;20442;-70
2022/07/30 02:04:52;;;;;;;5.10;2.73;;;17.40;99.60;;;;;;5074348;28;20497;-66
2022/07/30 02:07:27;;;;;;;5.60;2.30;;;17.50;99.30;;;;;;5082793;28;20494;-67
2022/07/30 02:10:01;;;;;;;4.50;2.60;;;17.50;99.10;;;;;;5091876;28;20838;-65
2022/07/30 02:12:31;;;;;;;3.37;2.20;;;17.40;98.90;;;;;;5093956;28;20835;-65
2022/07/30 02:15:10;;;;;;;3.23;2.10;;;17.50;98.50;;;;;;5091590;28;20806;-66
2022/07/30 02:17:42;;;;;;;3.70;2.80;;;17.50;98.50;;;;;;5081429;28;20451;-65
2022/07/30 02:20:12;;;;;;;4.83;3.20;;;17.50;98.40;;;;;;5073553;28;20446;-66
2022/07/30 02:22:46;;;;;;;4.03;3.43;;;17.50;98.60;;;;;;5084423;28;20439;-65
2022/07/30 02:25:20;;;;;;;3.90;2.50;;;17.50;98.40;;;;;;5076220;28;20432;-65
2022/07/30 02:27:53;;;;;;;6.73;3.10;;;17.60;98.20;;;;;;5084464;28;20506;-66
2022/07/30 02:30:25;;;;;;;3.10;2.10;;;17.70;98.00;;;;;;5093539;28;20435;-66
2022/07/30 02:32:59;;;;;;;9.67;6.20;;;17.70;97.50;;;;;;5088404;28;20801;-67
2022/07/30 02:35:30;;;;;;;4.00;2.90;;;17.70;97.50;;;;;;5093372;28;20474;-65
2022/07/30 02:37:59;;;;;;;4.27;2.33;;;17.70;97.50;;;;;;5074548;28;20462;-65
2022/07/30 02:40:28;;;;;;;5.17;2.40;;;17.80;97.60;;;;;;5073159;28;20857;-65
2022/07/30 02:42:57;;;;;;;3.20;2.37;;;17.80;97.30;;;;;;5069903;28;20443;-65
2022/07/30 02:45:26;;;;;;;4.07;2.20;;;17.80;97.30;;;;;;5072547;28;20464;-65
2022/07/30 02:47:59;;;;;;;5.13;2.90;;;17.80;96.90;;;;;;5076728;28;20526;-66
2022/07/30 02:50:28;;;;;;;2.83;2.30;;;17.80;97.00;;;;;;5083745;28;20450;-66
2022/07/30 02:52:57;;;;;;;8.27;2.83;;;17.80;97.00;;;;;;5093051;28;20481;-65
2022/07/30 02:55:28;;;;;;;4.90;3.00;;;17.80;97.10;;;;;;5081806;28;20436;-65
2022/07/30 02:57:56;;;;;;;4.10;2.77;;;17.90;97.40;;;;;;5072731;28;20460;-65
2022/07/30 03:00:25;;;;;;;4.57;2.60;;;17.90;96.90;;;;;;5082938;28;20894;-65
2022/07/30 03:02:54;;;;;;;3.97;2.50;;;17.80;97.20;;;;;;5092671;28;20951;-65
2022/07/30 03:05:21;;;;;;;5.23;2.70;;;17.80;97.10;;;;;;5082757;28;20443;-66
2022/07/30 03:07:49;;;;;;;6.97;2.97;;;17.80;97.20;;;;;;5080427;28;20553;-66
2022/07/30 03:10:17;;;;;;;3.67;2.47;;;17.80;97.60;;;;;;5086674;28;20442;-66
2022/07/30 03:12:46;;;;;;;3.67;2.70;;;17.70;97.50;;;;;;5092883;28;20467;-65
2022/07/30 03:15:14;;;;;;;4.03;2.90;;;17.70;97.40;;;;;;5086468;28;20432;-65
2022/07/30 03:17:45;;;;;;;3.30;2.67;;;17.70;97.30;;;;;;5072521;28;20436;-68
2022/07/30 03:20:15;;;;;;;4.87;2.70;;;17.60;97.10;;;;;;5076155;28;20480;-65
2022/07/30 03:22:46;;;;;;;9.50;2.93;;;17.50;97.10;;;;;;5092832;28;20450;-65
2022/07/30 03:25:16;;;;;;;8.50;2.67;;;17.40;97.40;;;;;;5087737;28;20447;-65
2022/07/30 03:27:45;;;;;;;3.90;2.60;;;17.50;97.10;;;;;;5072561;28;20595;-65
2022/07/30 03:30:13;;;;;;;4.53;2.93;;;17.40;97.40;;;;;;5075500;28;20427;-65
2022/07/30 03:32:43;;;;;;;3.50;2.60;;;17.40;97.70;;;;;;5092287;28;20451;-66
2022/07/30 03:35:11;;;;;;;4.60;2.90;;;17.50;97.20;;;;;;5089366;28;20446;-66
2022/07/30 03:37:40;;;;;;;3.53;2.20;;;17.40;97.10;;;;;;5072145;28;20438;-65
2022/07/30 03:40:09;;;;;;;3.63;2.50;;;17.40;97.40;;;;;;5072994;28;20515;-65
2022/07/30 03:42:41;;;;;;;3.80;3.10;;;17.30;97.60;;;;;;5092481;28;20435;-65
2022/07/30 03:45:12;;;;;;;4.70;2.70;;;17.20;97.60;;;;;;5091254;28;20477;-65
2022/07/30 03:47:41;;;;;;;3.93;2.67;;;17.20;97.70;;;;;;5071729;28;20490;-66
2022/07/30 03:50:11;;;;;;;4.80;3.07;;;17.10;97.50;;;;;;5072745;28;20798;-66
2022/07/30 03:52:40;;;;;;;7.00;3.77;;;17.10;97.70;;;;;;5092284;28;20461;-67
2022/07/30 03:55:09;;;;;;;3.93;2.60;;;17.10;97.70;;;;;;5084956;28;21087;-66
2022/07/30 03:57:36;;;;;;;7.73;3.70;;;17.10;97.50;;;;;;5072148;28;20486;-65
2022/07/30 04:00:04;;;;;;;4.17;3.10;;;17.10;97.30;;;;;;5076361;28;20842;-65
2022/07/30 04:02:32;;;;;;;4.70;3.13;;;17.10;97.50;;;;;;5092111;28;20967;-65
2022/07/30 04:04:59;;;;;;;3.20;2.50;;;17.10;97.00;;;;;;5086609;28;20436;-65
2022/07/30 04:07:28;;;;;;;3.07;2.50;;;17.10;96.90;;;;;;5072069;28;20477;-65
2022/07/30 04:09:55;;;;;;;3.97;3.40;;;17.00;96.80;;;;;;5071973;28;20451;-65
2022/07/30 04:12:22;;;;;;;4.20;2.67;;;17.10;97.00;;;;;;5072066;28;20483;-65
2022/07/30 04:14:49;;;;;;;3.10;2.57;;;17.00;96.80;;;;;;5087055;28;20439;-65
2022/07/30 04:17:21;;;;;;;3.80;3.23;;;17.10;97.00;;;;;;5092046;28;20427;-66
2022/07/30 04:19:50;;;;;;;5.40;2.60;;;17.20;96.60;;;;;;5079283;28;20512;-65
2022/07/30 04:22:25;;;;;;;5.23;2.60;;;17.20;96.60;;;;;;5076450;28;20501;-65
2022/07/30 04:24:55;;;;;;;4.90;2.90;;;17.30;96.30;;;;;;5079132;28;20439;-65
2022/07/30 04:27:24;;;;;;;4.40;2.87;;;17.30;96.20;;;;;;5096061;28;20490;-65
2022/07/30 04:29:51;;;;;;;3.47;2.50;;;17.40;96.30;;;;;;5092725;28;20443;-65
2022/07/30 04:32:19;;;;;;;4.63;3.23;;;17.40;95.90;;;;;;5085122;28;20442;-65
2022/07/30 04:34:47;;;;;;;6.40;2.50;;;17.40;95.80;;;;;;5093777;28;20937;-66
2022/07/30 04:37:16;;;;;;;4.37;2.50;;;17.40;95.80;;;;;;5075844;28;20438;-65
2022/07/30 04:39:43;;;;;;;4.97;2.70;;;17.40;95.80;;;;;;5075682;28;20802;-66
2022/07/30 04:42:12;;;;;;;3.20;2.90;;;17.50;95.40;;;;;;5086021;28;20436;-67
2022/07/30 04:44:40;;;;;;;3.90;2.87;;;17.50;95.60;;;;;;5075416;28;20439;-68
2022/07/30 04:47:07;;;;;;;3.40;2.70;;;17.60;95.90;;;;;;5095449;28;20505;-65
2022/07/30 04:49:34;;;;;;;9.13;3.20;;;17.70;96.00;;;;;;5095912;28;20952;-65
2022/07/30 04:52:03;;;;;;;5.17;2.73;;;17.80;96.00;;;;;;5080529;28;20512;-67
2022/07/30 04:54:41;;;;;;;3.20;2.53;;;18.00;96.30;;;;;;5095808;28;20576;-65
2022/07/30 04:57:10;;;;;;;5.30;3.60;;;18.10;95.40;;;;;;5074900;28;20439;-67
2022/07/30 04:59:39;;;;;;;4.50;3.00;;;18.10;95.00;;;;;;5075023;28;20504;-70
2022/07/30 05:02:07;;;;;;;3.50;2.10;;;18.20;95.00;;;;;;5072102;28;20431;-67
2022/07/30 05:04:35;;;;;;;4.13;3.30;;;18.10;95.00;;;;;;5093988;28;20435;-65
2022/07/30 05:07:03;;;;;;;5.27;2.70;;;18.20;95.00;;;;;;5095428;28;20900;-65
2022/07/30 05:09:31;;;;;;;8.83;3.10;;;18.20;94.80;;;;;;5074488;28;20494;-65
2022/07/30 05:11:59;;;;;;;3.63;2.30;;;18.20;94.60;;;;;;5075178;28;20440;-66
2022/07/30 05:14:27;;;;;;;3.87;3.00;;;18.20;94.50;;;;;;5092811;28;20439;-66
2022/07/30 05:16:56;;;;;;;3.87;2.50;;;18.30;94.70;;;;;;5095258;28;20446;-65
2022/07/30 05:19:24;;;;;;;4.17;2.53;;;18.40;94.70;;;;;;5077285;28;20444;-66
2022/07/30 05:21:51;;;;;;;5.93;2.60;;;18.50;94.40;;;;;;5075040;28;20468;-65
2022/07/30 05:24:18;;;;;;;3.20;2.50;;;18.60;94.10;;;;;;5090415;28;20442;-66
2022/07/30 05:26:46;;;;;;;5.20;2.60;;;18.60;94.10;;;;;;5080642;28;20843;-65
2022/07/30 05:29:15;;;;;;;5.87;2.77;;;18.70;93.90;;;;;;5074663;28;20479;-65
2022/07/30 05:31:42;;;;;;;4.20;2.33;;;18.70;93.70;;;;;;5086585;28;20510;-67
2022/07/30 05:34:10;;;;;;;4.13;2.27;;;18.70;94.10;;;;;;5092291;28;20444;-65
2022/07/30 05:36:37;;;;;;;3.37;2.60;;;18.80;93.80;;;;;;5095000;28;20488;-66
2022/07/30 05:39:05;;;;;;;4.00;2.50;;;19.00;93.70;;;;;;5084284;28;20479;-65
2022/07/30 05:41:32;;;;;;;3.10;1.93;;;19.00;93.00;;;;;;5080687;28;20488;-66
2022/07/30 05:43:59;;;;;;;5.00;3.17;;;19.00;92.50;;;;;;5093016;28;20451;-66
2022/07/30 05:46:26;;;;;;;4.20;2.83;;;19.00;92.60;;;;;;5094666;28;20516;-66
2022/07/30 05:48:53;;;;;;;4.93;3.67;;;19.10;93.20;;;;;;5090185;28;20510;-66
2022/07/30 05:51:22;;;;;;;5.00;2.50;;;19.20;93.30;;;;;;5087819;28;20519;-66
2022/07/30 05:53:49;;;;;;;7.07;2.70;;;19.30;93.50;;;;;;5091140;28;20468;-67
2022/07/30 05:56:16;;;;;;;3.50;2.73;;;19.40;93.70;;;;;;5094446;28;20440;-67
2022/07/30 05:58:44;;;;;;;4.63;2.80;;;19.50;93.10;;;;;;5092637;28;20476;-66
2022/07/30 06:01:11;;;;;;;3.20;2.40;;;19.50;93.00;;;;;;5074304;28;20440;-66
2022/07/30 06:03:38;;;;;;;3.80;2.50;;;19.60;92.90;;;;;;5074082;28;20448;-69
2022/07/30 06:06:05;;;;;;;7.80;2.70;;;19.60;93.10;;;;;;5074661;28;20775;-66
2022/07/30 06:08:34;;;;;;;4.97;2.50;;;19.70;93.10;;;;;;5060158;28;20481;-66
2022/07/30 06:11:01;;;;;;;3.40;2.23;;;19.70;92.90;;;;;;5087150;28;20480;-66
2022/07/30 06:13:28;;;;;;;4.53;2.30;;;19.80;92.90;;;;;;5094141;28;20448;-66
2022/07/30 06:15:55;;;;;;;3.23;2.27;;;19.80;92.90;;;;;;5084795;28;20506;-67
2022/07/30 06:18:22;;;;;;;2.97;2.50;;;19.80;92.70;;;;;;5093987;28;20444;-66
2022/07/30 06:20:50;;;;;;;2.90;2.13;;;19.80;92.40;;;;;;5078371;28;20446;-66
2022/07/30 06:23:17;;;;;;;3.40;2.07;;;19.90;92.90;;;;;;5073738;28;20885;-66
2022/07/30 06:25:46;;;;;;;5.50;2.83;;;19.90;93.10;;;;;;5085397;28;21000;-66
2022/07/30 06:28:13;;;;;;;4.10;2.57;;;19.90;93.20;;;;;;5094015;28;20485;-67
2022/07/30 06:30:40;;;;;;;2.93;2.13;;;20.00;93.50;;;;;;5079012;28;20519;-66
2022/07/30 06:33:08;;;;;;;7.90;2.97;;;20.00;92.70;;;;;;5073593;28;20437;-66
2022/07/30 06:35:35;;;;;;;6.30;2.60;;;20.00;90.80;;;;;;5083446;28;20507;-66
2022/07/30 06:38:02;;;;;;;3.63;2.53;;;20.00;91.20;;;;;;5093808;28;20501;-66
2022/07/30 06:40:29;;;;;;;2.70;2.33;;;20.00;91.50;;;;;;5084376;28;20511;-66
2022/07/30 06:42:57;;;;;;;6.43;2.17;;;20.00;91.90;;;;;;5073433;28;20446;-66
2022/07/30 06:45:24;;;;;;;2.73;2.10;;;20.10;92.00;;;;;;5085540;28;21014;-66
2022/07/30 06:47:51;;;;;;;3.80;2.60;;;20.20;92.00;;;;;;5093312;28;20783;-66
2022/07/30 06:50:19;;;;;;;4.27;2.70;;;20.20;91.80;;;;;;5079142;28;20530;-66
2022/07/30 06:52:46;;;;;;;3.40;2.50;;;20.20;91.90;;;;;;5089330;28;20447;-66
2022/07/30 06:55:13;;;;;;;3.60;2.40;;;20.20;91.50;;;;;;5091981;28;20425;-66
2022/07/30 06:57:40;;;;;;;2.77;2.17;;;20.20;91.10;;;;;;5092314;28;20525;-66
2022/07/30 07:00:10;;;;;;;3.80;2.23;;;20.30;91.30;;;;;;5092340;28;21013;-66
2022/07/30 07:02:38;;;;;;;4.37;2.47;;;20.20;90.90;;;;;;5086342;28;20434;-66
2022/07/30 07:05:06;;;;;;;4.00;2.70;;;20.20;91.60;;;;;;5057538;28;20558;-71
2022/07/30 07:07:34;;;;;;;3.03;2.63;;;20.20;91.10;;;;;;5085557;28;20445;-70
2022/07/30 07:10:01;;;;;;;4.53;2.30;;;20.20;91.40;;;;;;5081035;28;20532;-67
2022/07/30 07:12:29;;;;;;;4.40;2.60;;;20.20;91.90;;;;;;5080720;28;20434;-69
2022/07/30 07:14:56;;;;;;;3.20;2.30;;;20.30;92.10;;;;;;5088390;28;20530;-66
2022/07/30 07:17:24;;;;;;;4.90;2.90;;;20.30;91.90;;;;;;5090104;28;20532;-66
2022/07/30 07:19:51;;;;;;;5.40;3.03;;;20.30;91.80;;;;;;5091712;28;20826;-67
2022/07/30 07:22:18;;;;;;;3.00;2.43;;;20.50;92.00;;;;;;5090700;28;20434;-67
2022/07/30 07:24:45;;;;;;;3.30;2.50;;;20.70;92.30;;;;;;5091180;28;20447;-66
2022/07/30 07:27:14;;;;;;;6.70;2.90;;;21.00;91.70;;;;;;5091405;28;20495;-66
2022/07/30 07:29:41;;;;;;;4.20;2.83;;;21.30;91.40;;;;;;5085666;28;20561;-67
2022/07/30 07:32:08;;;;;;;4.13;2.20;;;21.40;90.70;;;;;;5087291;28;20522;-67
2022/07/30 07:34:36;;;;;;;6.60;2.97;;;21.70;91.50;;;;;;5090061;28;20447;-67
2022/07/30 07:37:03;;;;;;;4.67;2.67;;;21.90;90.20;;;;;;5091654;28;20463;-66
2022/07/30 07:39:30;;;;;;;3.57;2.17;;;22.00;89.20;;;;;;5088702;28;20435;-66
2022/07/30 07:41:57;;;;;;;2.90;2.60;;;22.10;90.50;;;;;;5091510;28;20853;-66
2022/07/30 07:44:24;;;;;;;3.03;2.23;;;22.30;91.10;;;;;;5086238;28;20973;-66
2022/07/30 07:46:51;;;;;;;3.53;2.20;;;22.60;90.00;;;;;;5090916;28;20481;-66
2022/07/30 07:49:18;;;;;;;5.27;2.53;;;22.90;87.20;;;;;;5087772;28;20511;-66
2022/07/30 07:51:46;;;;;;;4.10;2.80;;;23.10;86.10;;;;;;5090823;28;20435;-66
2022/07/30 07:54:13;;;;;;;3.30;2.33;;;23.40;87.30;;;;;;5089231;28;20443;-66
2022/07/30 07:56:40;;;;;;;4.20;2.50;;;23.60;83.80;;;;;;5090953;28;20474;-66
2022/07/30 07:59:07;;;;;;;4.00;2.40;;;23.80;83.20;;;;;;5089151;28;20562;-66
2022/07/30 08:01:34;;;;;;;6.33;2.70;;;23.90;82.00;;;;;;5091444;28;20827;-66
2022/07/30 08:04:01;;;;;;;4.63;3.00;;;24.00;79.60;;;;;;5085865;28;20877;-66
2022/07/30 08:06:28;;;;;;;3.83;2.87;;;24.00;81.20;;;;;;5091301;28;20447;-66
2022/07/30 08:08:56;;;;;;;4.93;2.80;;;24.10;81.10;;;;;;5079320;28;20995;-66
2022/07/30 08:11:23;;;;;;;3.93;3.40;;;24.30;81.80;;;;;;5091080;28;20530;-66
2022/07/30 08:13:50;;;;;;;3.90;3.03;;;24.40;79.80;;;;;;5088703;28;20480;-66
2022/07/30 08:16:17;;;;;;;5.83;3.17;;;24.40;80.00;;;;;;5090986;28;20447;-67
2022/07/30 08:18:44;;;;;;;7.03;3.20;;;24.50;79.80;;;;;;5090425;28;20518;-66
2022/07/30 08:21:11;;;;;;;7.87;3.03;;;24.60;78.80;;;;;;5091020;28;20501;-67
2022/07/30 08:23:38;;;;;;;4.07;3.07;;;24.80;77.20;;;;;;5090812;28;20525;-66
2022/07/30 08:26:06;;;;;;;8.47;3.43;;;24.90;77.30;;;;;;5086662;28;20532;-68
2022/07/30 08:28:33;;;;;;;6.93;4.57;;;25.00;77.50;;;;;;5080100;28;20806;-66
2022/07/30 08:31:00;;;;;;;3.67;3.30;;;25.10;75.60;;;;;;5090053;28;20510;-66
2022/07/30 08:33:27;;;;;;;6.83;3.50;;;25.10;74.00;;;;;;5090972;28;21101;-66
2022/07/30 08:35:54;;;;;;;3.70;2.53;;;25.10;74.40;;;;;;5089103;28;20515;-70
2022/07/30 08:38:21;;;;;;;6.03;3.33;;;25.10;75.80;;;;;;5090141;28;20434;-66
2022/07/30 08:40:48;;;;;;;4.57;3.07;;;25.20;72.80;;;;;;5090799;28;20475;-66
2022/07/30 08:43:17;;;;;;;5.67;3.30;;;25.40;72.00;;;;;;5089290;28;20914;-66
2022/07/30 08:45:44;;;;;;;4.13;3.47;;;25.60;71.10;;;;;;5090573;28;20557;-66
2022/07/30 08:48:13;;;;;;;5.77;3.87;;;25.80;71.00;;;;;;5089997;28;20530;-66
2022/07/30 08:50:40;;;;;;;3.77;2.57;;;25.90;68.10;;;;;;5087995;28;20531;-66
2022/07/30 08:53:07;;;;;;;5.87;3.60;;;25.90;66.40;;;;;;5090738;28;20874;-66
2022/07/30 08:55:34;;;;;;;4.60;2.90;;;26.00;65.80;;;;;;5088705;28;20513;-66
2022/07/30 08:58:01;;;;;;;5.50;2.97;;;26.10;66.40;;;;;;5090401;28;20463;-66
2022/07/30 09:00:30;;;;;;;7.00;3.60;;;26.10;62.30;;;;;;5090444;28;20431;-66
2022/07/30 09:02:59;;;;;;;4.30;2.47;;;26.00;63.10;;;;;;5075967;28;21325;-70
2022/07/30 09:05:28;;;;;;;6.30;2.80;;;26.10;64.70;;;;;;5041934;28;20792;-72
2022/07/30 09:07:55;;;;;;;4.10;2.83;;;26.30;66.00;;;;;;5062725;28;20970;-67
2022/07/30 09:10:24;;;;;;;3.50;2.57;;;26.40;61.70;;;;;;5065849;28;20484;-71
2022/07/30 09:12:51;;;;;;;4.53;3.00;;;26.50;64.00;;;;;;5087672;28;20501;-66
2022/07/30 09:15:21;;;;;;;4.97;2.80;;;26.70;66.10;;;;;;5087693;28;20439;-66
2022/07/30 09:17:55;;;;;;;4.00;2.80;;;27.00;65.40;;;;;;5091548;28;20453;-67
2022/07/30 09:20:25;;;;;;;3.87;2.70;;;27.30;63.70;;;;;;5089705;28;20478;-67
2022/07/30 09:22:56;;;;;;;9.67;3.13;;;27.50;58.90;;;;;;5093936;28;20801;-66
2022/07/30 09:25:38;;;;;;;4.70;2.93;;;27.60;58.50;;;;;;5092289;28;20467;-66
2022/07/30 09:28:08;;;;;;;3.80;2.47;;;27.60;56.60;;;;;;5093762;28;20933;-66
2022/07/30 09:30:46;;;;;;;6.90;2.80;;;27.70;56.70;;;;;;5092167;28;20502;-66
2022/07/30 09:33:15;;;;;;;4.77;2.67;;;27.60;56.90;;;;;;5088811;28;20469;-67
2022/07/30 09:35:44;;;;;;;3.80;2.70;;;27.70;56.30;;;;;;5084976;28;20466;-68
2022/07/30 09:38:12;;;;;;;7.30;2.40;;;27.70;56.90;;;;;;5073738;28;20941;-67
2022/07/30 09:40:39;;;;;;;4.50;1.90;;;27.80;56.60;;;;;;5093254;28;20470;-67
2022/07/30 09:43:07;;;;;;;3.83;2.50;;;27.90;53.60;;;;;;5088658;28;20550;-66
2022/07/30 09:45:34;;;;;;;3.17;2.17;;;28.10;53.70;;;;;;5071759;28;20466;-69
2022/07/30 09:48:02;;;;;;;4.63;1.97;;;28.20;53.00;;;;;;5085355;28;20450;-66
2022/07/30 09:50:31;;;;;;;4.10;2.10;;;28.20;53.30;;;;;;5085240;28;20582;-66
2022/07/30 09:53:07;;;;;;;3.97;2.00;;;28.10;50.90;;;;;;5050043;28;21304;-71
2022/07/30 09:55:35;;;;;;;4.43;1.90;;;28.00;53.40;;;;;;5012583;28;20978;-72
2022/07/30 09:58:05;;;;;;;3.00;2.30;;;28.00;53.80;;;;;;5010819;28;20524;-68
2022/07/30 10:00:34;;;;;;;3.53;2.13;;;28.10;53.80;;;;;;5012762;28;20741;-73
2022/07/30 10:03:14;;;;;;;3.03;1.70;;;28.20;54.40;;;;;;5047027;28;20484;-68
2022/07/30 10:05:50;;;;;;;5.00;2.10;;;28.30;51.80;;;;;;5089785;28;20434;-67
2022/07/30 10:08:17;;;;;;;3.37;1.93;;;28.40;52.30;;;;;;5091956;28;20456;-66
2022/07/30 10:10:45;;;;;;;5.00;2.13;;;28.50;51.10;;;;;;5092615;28;20486;-66
2022/07/30 10:13:14;;;;;;;5.30;2.17;;;28.50;51.40;;;;;;5083363;28;20538;-68
2022/07/30 10:15:43;;;;;;;2.83;1.60;;;28.50;49.40;;;;;;5087228;28;20485;-70
2022/07/30 10:18:11;;;;;;;2.60;1.87;;;28.60;50.00;;;;;;5086851;28;20446;-66
2022/07/30 10:20:38;;;;;;;6.00;1.77;;;28.90;51.00;;;;;;5088506;28;20917;-67
2022/07/30 10:23:08;;;;;;;2.77;1.90;;;29.00;49.80;;;;;;5089929;28;20471;-66
2022/07/30 10:25:35;;;;;;;3.67;2.07;;;29.00;49.60;;;;;;5088970;28;20439;-66
2022/07/30 10:28:03;;;;;;;3.07;1.90;;;29.00;48.50;;;;;;5087352;28;20475;-66
2022/07/30 10:30:31;;;;;;;4.57;1.70;;;29.00;48.00;;;;;;5084136;28;20518;-68
2022/07/30 10:32:59;;;;;;;2.20;1.40;;;28.90;44.10;;;;;;5085202;28;20522;-66
2022/07/30 10:35:26;;;;;;;2.93;1.47;;;28.90;45.40;;;;;;5085508;28;20845;-67
2022/07/30 10:37:56;;;;;;;3.00;1.83;;;28.90;44.40;;;;;;5085199;28;20922;-66
2022/07/30 10:40:30;;;;;;;3.60;2.50;;;28.90;45.10;;;;;;5090122;28;20435;-66
2022/07/30 10:43:37;;;;;;;3.50;1.63;;;28.80;45.40;;;;;;5083669;28;20450;-66
2022/07/30 10:46:13;;;;;;;3.50;1.87;;;28.80;47.10;;;;;;5033677;28;20493;-66
2022/07/30 10:48:40;;;;;;;3.27;1.70;;;28.80;46.00;;;;;;5077812;28;20482;-66
2022/07/30 10:51:10;;;;;;;3.67;1.83;;;28.80;46.40;;;;;;5090487;28;21030;-68
2022/07/30 10:53:38;;;;;;;2.43;1.70;;;28.70;47.80;;;;;;5082589;28;20428;-66
2022/07/30 10:56:15;;;;;;;2.77;1.70;;;28.80;46.00;;;;;;5078080;28;20447;-66
2022/07/30 10:58:59;;;;;;;2.83;1.80;;;28.80;45.60;;;;;;5085554;28;20936;-66
2022/07/30 11:01:26;;;;;;;2.70;1.60;;;28.80;44.00;;;;;;5084266;28;20522;-66
2022/07/30 11:04:18;;;;;;;3.33;1.90;;;28.90;45.50;;;;;;5088607;28;20816;-66
2022/07/30 11:06:48;;;;;;;2.80;1.50;;;29.10;45.90;;;;;;5087475;28;20441;-67
2022/07/30 11:09:34;;;;;;;3.00;1.43;;;29.20;44.10;;;;;;5088825;28;20470;-66
2022/07/30 11:12:04;;;;;;;3.80;1.60;;;29.20;43.90;;;;;;5083213;28;20929;-67
2022/07/30 11:14:57;;;;;;;2.50;1.63;;;29.30;43.20;;;;;;5086824;28;21064;-66
2022/07/30 11:17:24;;;;;;;3.63;1.93;;;29.50;43.10;;;;;;5083859;28;20440;-66
2022/07/30 11:20:10;;;;;;;3.03;1.80;;;29.70;43.10;;;;;;5083164;28;20526;-67
2022/07/30 11:22:39;;;;;;;5.23;1.73;;;29.70;41.30;;;;;;5085627;28;20901;-66
2022/07/30 11:25:07;;;;;;;3.10;1.80;;;29.70;41.70;;;;;;5092019;28;20454;-66
2022/07/30 11:27:38;;;;;;;3.77;2.30;;;29.60;41.20;;;;;;5087214;28;20467;-66
2022/07/30 11:30:26;;;;;;;3.33;1.60;;;29.50;42.90;;;;;;5088946;28;20906;-66
2022/07/30 11:32:55;;;;;;;6.03;2.10;;;29.50;43.00;;;;;;5089908;28;20434;-66
2022/07/30 11:35:23;;;;;;;4.80;2.00;;;29.50;43.00;;;;;;5089685;28;20526;-66
2022/07/30 11:38:01;;;;;;;3.43;1.70;;;29.50;42.80;;;;;;5083496;28;20824;-66
2022/07/30 11:40:31;;;;;;;2.90;1.57;;;29.50;42.30;;;;;;5084355;28;20805;-68
2022/07/30 11:43:28;;;;;;;4.23;1.70;;;29.30;42.20;;;;;;5085608;28;20492;-66
2022/07/30 11:46:06;;;;;;;2.83;1.63;;;29.10;42.50;;;;;;5044257;28;20463;-66
2022/07/30 11:48:36;;;;;;;5.30;2.30;;;28.80;43.10;;;;;;5085946;28;20488;-66
2022/07/30 11:51:03;;;;;;;3.97;2.20;;;28.50;44.10;;;;;;5091190;28;20545;-66
2022/07/30 11:53:31;;;;;;;2.63;1.97;;;28.20;45.40;;;;;;5089829;28;20467;-66
2022/07/30 11:55:59;;;;;;;4.17;1.90;;;28.00;47.10;;;;;;5084618;28;20485;-66
2022/07/30 11:58:31;;;;;;;4.90;2.03;;;27.90;47.50;;;;;;5084155;28;20435;-68
2022/07/30 12:01:02;;;;;;;2.37;1.90;;;27.90;46.90;;;;;;5080108;28;20427;-72
2022/07/30 12:03:31;;;;;;;3.00;2.00;;;27.70;47.10;;;;;;5084106;28;20469;-66
2022/07/30 12:06:06;;;;;;;2.67;1.83;;;27.60;47.50;;;;;;5088659;28;20959;-66
2022/07/30 12:08:41;;;;;;;3.93;2.10;;;27.50;48.50;;;;;;5085456;28;20797;-68
2022/07/30 12:11:11;;;;;;;3.40;1.90;;;27.60;48.30;;;;;;5095412;28;20569;-66
2022/07/30 12:13:44;;;;;;;3.70;2.03;;;27.70;47.90;;;;;;5092404;28;20959;-66
2022/07/30 12:16:13;;;;;;;4.97;1.80;;;27.80;48.50;;;;;;5081878;28;20517;-67
2022/07/30 12:18:42;;;;;;;3.43;2.10;;;27.90;48.20;;;;;;5091285;28;20435;-67
2022/07/30 12:21:10;;;;;;;4.23;1.80;;;28.00;47.70;;;;;;5095005;28;20434;-66
2022/07/30 12:23:40;;;;;;;2.70;1.73;;;28.20;48.00;;;;;;5097306;28;20488;-66
2022/07/30 12:26:07;;;;;;;2.83;2.10;;;28.40;47.40;;;;;;5087572;28;20447;-67
2022/07/30 12:28:36;;;;;;;5.87;1.93;;;28.50;46.10;;;;;;5097659;28;20489;-66
2022/07/30 12:31:05;;;;;;;3.60;2.00;;;28.40;45.30;;;;;;5091545;28;20511;-66
2022/07/30 12:33:37;;;;;;;3.57;1.67;;;28.20;45.50;;;;;;5093291;28;20861;-66
2022/07/30 12:36:06;;;;;;;3.53;2.03;;;28.10;45.90;;;;;;5092476;28;20797;-66
2022/07/30 12:38:49;;;;;;;2.80;1.93;;;27.90;45.30;;;;;;5095128;28;20467;-66
2022/07/30 12:41:22;;;;;;;2.77;1.93;;;27.90;45.90;;;;;;5097700;28;20446;-66
2022/07/30 12:43:53;;;;;;;3.07;1.70;;;28.00;46.90;;;;;;5097109;28;20526;-67
2022/07/30 12:46:25;;;;;;;3.43;2.10;;;28.20;46.90;;;;;;5097315;28;20462;-67
2022/07/30 12:48:54;;;;;;;2.83;2.00;;;28.30;46.80;;;;;;5093598;28;20445;-66
2022/07/30 12:51:22;;;;;;;3.70;2.23;;;28.50;47.00;;;;;;5099570;28;20565;-66
2022/07/30 12:53:50;;;;;;;2.73;2.00;;;28.50;45.80;;;;;;5093234;28;20533;-66
2022/07/30 12:56:18;;;;;;;4.00;2.20;;;28.40;45.90;;;;;;5101010;28;21016;-66
2022/07/30 12:58:50;;;;;;;4.77;2.27;;;28.20;45.10;;;;;;5093664;28;20430;-66